createdAt,value
2022-08-07T00:00:53.204Z,15.11
2022-08-07T00:02:41.129Z,15.09
2022-08-07T00:02:53.456Z,15.11
2022-08-07T00:03:53.159Z,15.12
2022-08-07T00:04:53.227Z,15.03
2022-08-07T00:05:53.142Z,15.05
2022-08-07T00:06:53.116Z,15.00
2022-08-07T00:07:59.767Z,15.05
2022-08-07T00:08:53.094Z,15.05
2022-08-07T00:10:11.075Z,15.04
2022-08-07T00:10:58.229Z,15.01
2022-08-07T00:11:55.556Z,15.07
2022-08-07T00:13:00.726Z,14.90
2022-08-07T00:13:53.027Z,14.98
2022-08-07T00:14:53.015Z,14.98
2022-08-07T00:15:53.006Z,14.93
2022-08-07T00:16:52.989Z,14.97
2022-08-07T00:17:52.976Z,14.94
2022-08-07T00:18:52.951Z,14.94
2022-08-07T00:20:02.475Z,14.93
2022-08-07T00:20:52.925Z,14.87
2022-08-07T00:21:56.775Z,14.85
2022-08-07T00:22:53.924Z,14.87
2022-08-07T00:23:52.894Z,14.93
2022-08-07T00:24:52.876Z,14.94
2022-08-07T00:26:00.147Z,14.87
2022-08-07T00:27:06.567Z,14.85
2022-08-07T00:27:56.478Z,14.90
2022-08-07T00:28:56.549Z,14.87
2022-08-07T00:29:52.807Z,14.86
2022-08-07T00:30:52.795Z,14.80
2022-08-07T00:31:52.785Z,14.87
2022-08-07T00:32:52.768Z,14.82
2022-08-07T00:33:52.761Z,14.87
2022-08-07T00:34:52.737Z,14.87
2022-08-07T00:35:52.730Z,14.80
2022-08-07T00:36:52.714Z,14.79
2022-08-07T00:37:52.703Z,14.72
2022-08-07T00:38:52.685Z,14.63
2022-08-07T00:39:54.642Z,14.67
2022-08-07T00:40:52.657Z,14.69
2022-08-07T00:41:53.450Z,14.54
2022-08-07T00:42:52.637Z,14.67
2022-08-07T00:44:01.747Z,14.67
2022-08-07T00:44:52.605Z,14.72
2022-08-07T00:45:52.616Z,14.59
2022-08-07T00:46:52.581Z,14.63
2022-08-07T00:48:09.518Z,14.66
2022-08-07T00:48:52.557Z,14.60
2022-08-07T00:50:19.475Z,14.72
2022-08-07T00:50:52.519Z,14.63
2022-08-07T00:51:58.556Z,14.66
2022-08-07T00:52:53.120Z,14.57
2022-08-07T00:53:55.241Z,14.67
2022-08-07T00:54:53.549Z,14.61
2022-08-07T00:56:02.314Z,14.56
2022-08-07T00:56:52.440Z,14.57
2022-08-07T00:57:55.547Z,14.53
2022-08-07T00:58:52.417Z,14.49
2022-08-07T00:59:52.405Z,14.60
2022-08-07T01:00:54.007Z,14.45
2022-08-07T01:01:52.402Z,14.53
2022-08-07T01:02:52.362Z,14.46
2022-08-07T01:03:56.509Z,14.38
2022-08-07T01:04:52.329Z,14.54
2022-08-07T01:05:53.563Z,14.48
2022-08-07T01:06:52.307Z,14.35
2022-08-07T01:07:52.301Z,14.34
2022-08-07T01:08:53.283Z,14.30
2022-08-07T01:10:06.557Z,14.26
2022-08-07T01:10:56.450Z,14.21
2022-08-07T01:12:28.077Z,14.16
2022-08-07T01:12:54.631Z,14.24
2022-08-07T01:13:55.939Z,14.16
2022-08-07T01:14:57.069Z,14.19
2022-08-07T01:16:05.224Z,14.16
2022-08-07T01:16:52.166Z,14.23
2022-08-07T01:17:52.163Z,14.17
2022-08-07T01:18:52.141Z,14.12
2022-08-07T01:19:54.493Z,14.11
2022-08-07T01:20:57.372Z,14.19
2022-08-07T01:21:53.335Z,14.17
2022-08-07T01:23:00.610Z,14.26
2022-08-07T01:23:53.100Z,14.13
2022-08-07T01:24:52.078Z,14.13
2022-08-07T01:25:56.016Z,14.05
2022-08-07T01:26:52.701Z,14.01
2022-08-07T01:27:52.030Z,14.08
2022-08-07T01:28:52.011Z,14.11
2022-08-07T01:29:52.005Z,14.02
2022-08-07T01:30:52.079Z,13.90
2022-08-07T01:31:51.973Z,13.83
2022-08-07T01:32:51.949Z,13.88
2022-08-07T01:33:55.160Z,13.83
2022-08-07T01:34:51.927Z,13.86
2022-08-07T01:35:54.055Z,13.83
2022-08-07T01:36:57.625Z,13.75
2022-08-07T01:37:52.911Z,13.80
2022-08-07T01:38:51.869Z,13.88
2022-08-07T01:39:51.888Z,13.73
2022-08-07T01:40:51.845Z,13.66
2022-08-07T01:42:01.691Z,13.66
2022-08-07T01:42:58.653Z,13.69
2022-08-07T01:43:51.802Z,13.71
2022-08-07T01:44:51.784Z,13.72
2022-08-07T01:45:54.558Z,13.72
2022-08-07T01:46:51.762Z,13.68
2022-08-07T01:48:17.647Z,13.71
2022-08-07T01:48:51.734Z,13.81
2022-08-07T01:49:53.557Z,13.69
2022-08-07T01:50:51.713Z,13.72
2022-08-07T01:52:03.417Z,13.65
2022-08-07T01:52:54.973Z,13.69
2022-08-07T01:54:12.373Z,13.71
2022-08-07T01:54:51.650Z,13.76
2022-08-07T01:55:51.634Z,13.69
2022-08-07T01:56:51.627Z,13.80
2022-08-07T01:58:06.155Z,13.62
2022-08-07T01:58:51.591Z,13.55
2022-08-07T01:59:51.583Z,13.47
2022-08-07T02:00:51.634Z,13.55
2022-08-07T02:02:01.994Z,13.55
2022-08-07T02:03:19.016Z,13.50
2022-08-07T02:03:51.590Z,13.59
2022-08-07T02:06:08.854Z,13.46
2022-08-07T02:07:09.128Z,13.50
2022-08-07T02:08:08.094Z,13.50
2022-08-07T02:09:08.079Z,13.57
2022-08-07T02:10:08.061Z,13.57
2022-08-07T02:11:09.069Z,13.51
2022-08-07T02:12:08.036Z,13.46
2022-08-07T02:13:08.018Z,13.44
2022-08-07T02:14:08.011Z,13.48
2022-08-07T02:15:07.995Z,13.48
2022-08-07T02:16:07.980Z,13.48
2022-08-07T02:17:07.960Z,13.39
2022-08-07T02:18:07.960Z,13.53
2022-08-07T02:20:04.500Z,13.47
2022-08-07T02:20:09.870Z,13.39
2022-08-07T02:21:07.918Z,13.38
2022-08-07T02:22:08.920Z,13.41
2022-08-07T02:23:07.885Z,13.32
2022-08-07T02:24:07.870Z,13.32
2022-08-07T02:25:13.822Z,13.28
2022-08-07T02:26:31.081Z,13.28
2022-08-07T02:27:08.856Z,13.22
2022-08-07T02:28:07.820Z,13.27
2022-08-07T02:29:07.800Z,13.22
2022-08-07T02:30:08.822Z,13.24
2022-08-07T02:31:18.738Z,13.29
2022-08-07T02:32:10.876Z,13.31
2022-08-07T02:33:09.369Z,13.25
2022-08-07T02:34:11.640Z,13.19
2022-08-07T02:35:09.088Z,13.12
2022-08-07T02:36:26.896Z,13.14
2022-08-07T02:37:08.715Z,13.14
2022-08-07T02:38:07.678Z,13.14
2022-08-07T02:39:16.161Z,13.17
2022-08-07T02:40:30.472Z,13.16
2022-08-07T02:41:10.685Z,13.13
2022-08-07T02:42:10.147Z,13.14
2022-08-07T02:43:07.900Z,13.19
2022-08-07T02:44:07.599Z,13.09
2022-08-07T02:45:57.555Z,13.10
2022-08-07T02:46:07.570Z,13.06
2022-08-07T02:47:07.558Z,12.94
2022-08-07T02:48:10.243Z,13.07
2022-08-07T02:49:07.534Z,12.95
2022-08-07T02:50:07.515Z,12.95
2022-08-07T02:51:07.513Z,12.94
2022-08-07T02:52:07.490Z,12.89
2022-08-07T02:53:07.473Z,12.89
2022-08-07T02:54:07.464Z,12.89
2022-08-07T02:55:27.879Z,12.98
2022-08-07T02:57:30.956Z,12.94
2022-08-07T02:59:17.096Z,12.92
2022-08-07T03:00:18.337Z,12.92
2022-08-07T03:03:07.109Z,12.89
2022-08-07T03:04:12.818Z,12.79
2022-08-07T03:05:07.076Z,12.76
2022-08-07T03:06:07.073Z,12.84
2022-08-07T03:07:10.605Z,12.85
2022-08-07T03:08:10.083Z,12.84
2022-08-07T03:09:07.020Z,12.71
2022-08-07T03:10:07.008Z,12.96
2022-08-07T03:11:06.994Z,12.91
2022-08-07T03:12:06.986Z,12.79
2022-08-07T03:13:06.966Z,12.74
2022-08-07T03:14:06.958Z,12.84
2022-08-07T03:15:07.758Z,12.84
2022-08-07T03:16:06.938Z,12.73
2022-08-07T03:17:08.679Z,12.76
2022-08-07T03:18:06.912Z,12.69
2022-08-07T03:19:06.891Z,12.70
2022-08-07T03:20:06.876Z,12.74
2022-08-07T03:21:08.918Z,12.56
2022-08-07T03:22:06.863Z,12.73
2022-08-07T03:23:06.844Z,12.71
2022-08-07T03:24:20.932Z,12.71
2022-08-07T03:25:06.814Z,12.77
2022-08-07T03:26:06.803Z,12.67
2022-08-07T03:27:08.965Z,12.80
2022-08-07T03:28:09.536Z,12.69
2022-08-07T03:29:10.545Z,12.73
2022-08-07T03:30:06.748Z,12.66
2022-08-07T03:31:06.726Z,12.69
2022-08-07T03:32:06.715Z,12.67
2022-08-07T03:33:07.908Z,12.61
2022-08-07T03:34:06.693Z,12.79
2022-08-07T03:35:17.795Z,12.76
2022-08-07T03:36:06.670Z,12.59
2022-08-07T03:37:11.912Z,12.62
2022-08-07T03:38:06.641Z,12.59
2022-08-07T03:39:06.693Z,12.46
2022-08-07T03:40:15.741Z,12.58
2022-08-07T03:41:06.600Z,12.69
2022-08-07T03:42:06.589Z,12.59
2022-08-07T03:43:10.092Z,12.58
2022-08-07T03:44:06.567Z,12.76
2022-08-07T03:45:06.549Z,12.63
2022-08-07T03:46:10.393Z,12.56
2022-08-07T03:47:10.824Z,12.56
2022-08-07T03:48:10.129Z,12.49
2022-08-07T03:49:06.488Z,12.61
2022-08-07T03:50:06.475Z,12.69
2022-08-07T03:51:06.470Z,12.58
2022-08-07T03:52:06.453Z,12.61
2022-08-07T03:53:06.918Z,12.51
2022-08-07T03:54:36.303Z,12.51
2022-08-07T03:55:07.849Z,12.58
2022-08-07T03:56:06.400Z,12.55
2022-08-07T03:57:07.444Z,12.59
2022-08-07T03:58:34.531Z,12.43
2022-08-07T03:59:09.606Z,12.49
2022-08-07T04:00:06.349Z,12.34
2022-08-07T04:01:07.352Z,12.48
2022-08-07T04:02:06.317Z,12.38
2022-08-07T04:03:06.311Z,12.44
2022-08-07T04:04:06.329Z,12.48
2022-08-07T04:05:06.290Z,12.40
2022-08-07T04:06:06.267Z,12.33
2022-08-07T04:07:16.732Z,12.43
2022-08-07T04:08:07.267Z,12.36
2022-08-07T04:09:06.230Z,12.48
2022-08-07T04:10:06.210Z,12.36
2022-08-07T04:12:24.747Z,12.37
2022-08-07T04:12:26.963Z,12.40
2022-08-07T04:13:06.178Z,12.40
2022-08-07T04:14:09.396Z,12.40
2022-08-07T04:15:06.158Z,12.34
2022-08-07T04:16:06.139Z,12.46
2022-08-07T04:17:19.951Z,12.30
2022-08-07T04:18:58.033Z,12.33
2022-08-07T04:19:12.698Z,12.30
2022-08-07T04:20:06.088Z,12.34
2022-08-07T04:21:07.378Z,12.25
2022-08-07T04:22:12.161Z,12.21
2022-08-07T04:23:06.253Z,12.21
2022-08-07T04:24:07.259Z,12.25
2022-08-07T04:25:08.721Z,12.30
2022-08-07T04:26:07.031Z,12.21
2022-08-07T04:27:05.997Z,12.13
2022-08-07T04:28:05.979Z,12.31
2022-08-07T04:29:05.966Z,12.21
2022-08-07T04:30:13.398Z,12.34
2022-08-07T04:31:05.936Z,12.26
2022-08-07T04:32:10.814Z,12.31
2022-08-07T04:33:07.210Z,12.29
2022-08-07T04:34:05.896Z,12.36
2022-08-07T04:35:06.312Z,12.30
2022-08-07T04:36:06.449Z,12.33
2022-08-07T04:37:08.104Z,12.38
2022-08-07T04:38:06.770Z,12.26
2022-08-07T04:39:05.885Z,12.25
2022-08-07T04:40:05.827Z,12.38
2022-08-07T04:41:05.811Z,12.33
2022-08-07T04:42:05.794Z,12.37
2022-08-07T04:43:05.781Z,12.38
2022-08-07T04:44:11.784Z,12.40
2022-08-07T04:45:08.187Z,12.40
2022-08-07T04:46:05.739Z,12.43
2022-08-07T04:47:08.163Z,12.46
2022-08-07T04:48:10.578Z,12.44
2022-08-07T04:49:14.869Z,12.44
2022-08-07T04:50:05.684Z,12.55
2022-08-07T04:51:05.686Z,12.54
2022-08-07T04:52:05.671Z,12.49
2022-08-07T04:53:05.659Z,12.52
2022-08-07T04:54:06.940Z,12.52
2022-08-07T04:55:15.478Z,12.44
2022-08-07T04:58:14.034Z,12.56
2022-08-07T04:58:15.417Z,12.58
2022-08-07T04:58:42.329Z,12.52
2022-08-07T04:59:17.769Z,12.61
2022-08-07T05:00:09.792Z,12.63
2022-08-07T05:01:05.588Z,12.67
2022-08-07T05:02:05.526Z,12.59
2022-08-07T05:03:16.718Z,12.71
2022-08-07T05:04:07.951Z,12.62
2022-08-07T05:05:11.298Z,12.73
2022-08-07T05:06:16.336Z,12.74
2022-08-07T05:07:19.770Z,12.77
2022-08-07T05:08:05.445Z,12.94
2022-08-07T05:09:06.206Z,12.91
2022-08-07T05:10:05.426Z,12.99
2022-08-07T05:11:05.417Z,13.04
2022-08-07T05:12:05.399Z,13.03
2022-08-07T05:14:44.924Z,13.07
2022-08-07T05:14:52.380Z,13.06
2022-08-07T05:15:05.380Z,13.14
2022-08-07T05:16:05.348Z,13.19
2022-08-07T05:17:05.860Z,13.14
2022-08-07T05:18:08.537Z,13.21
2022-08-07T05:19:05.303Z,13.25
2022-08-07T05:20:09.649Z,13.36
2022-08-07T05:21:05.279Z,13.28
2022-08-07T05:22:05.272Z,13.39
2022-08-07T05:23:05.253Z,13.59
2022-08-07T05:24:06.265Z,13.53
2022-08-07T05:25:08.659Z,13.61
2022-08-07T05:26:13.849Z,13.68
2022-08-07T05:27:05.204Z,13.80
2022-08-07T05:28:19.872Z,13.72
2022-08-07T05:29:05.175Z,13.87
2022-08-07T05:30:05.159Z,13.80
2022-08-07T05:31:05.154Z,13.88
2022-08-07T05:32:05.131Z,13.87
2022-08-07T05:33:05.134Z,13.99
2022-08-07T05:34:05.798Z,14.04
2022-08-07T05:35:05.099Z,14.20
2022-08-07T05:36:05.077Z,14.27
2022-08-07T05:37:05.713Z,14.24
2022-08-07T05:38:08.432Z,14.31
2022-08-07T05:40:05.025Z,14.44
2022-08-07T05:40:18.558Z,14.45
2022-08-07T05:41:12.169Z,14.56
2022-08-07T05:42:07.510Z,14.52
2022-08-07T05:43:04.986Z,14.63
2022-08-07T05:44:11.971Z,14.69
2022-08-07T05:45:14.370Z,14.71
2022-08-07T05:46:04.944Z,14.83
2022-08-07T05:47:18.092Z,14.79
2022-08-07T05:48:05.217Z,14.87
2022-08-07T05:49:12.028Z,14.90
2022-08-07T05:50:04.891Z,15.00
2022-08-07T05:51:04.880Z,15.13
2022-08-07T05:52:04.858Z,15.22
2022-08-07T05:53:04.849Z,15.28
2022-08-07T05:54:12.225Z,15.28
2022-08-07T05:55:10.820Z,15.49
2022-08-07T05:56:06.172Z,15.46
2022-08-07T05:57:04.796Z,15.60
2022-08-07T05:58:04.783Z,15.70
2022-08-07T05:59:04.777Z,15.86
2022-08-07T06:00:04.767Z,15.89
2022-08-07T06:01:05.159Z,15.96
2022-08-07T06:02:04.833Z,16.10
2022-08-07T06:03:04.719Z,16.25
2022-08-07T06:04:04.709Z,16.22
2022-08-07T06:05:04.695Z,16.37
2022-08-07T06:06:04.877Z,16.52
2022-08-07T06:07:04.683Z,16.57
2022-08-07T06:08:14.333Z,16.70
2022-08-07T06:09:05.665Z,16.70
2022-08-07T06:10:06.196Z,16.84
2022-08-07T06:11:04.611Z,16.85
2022-08-07T06:12:04.597Z,16.85
2022-08-07T06:13:04.605Z,16.87
2022-08-07T06:14:12.652Z,16.99
2022-08-07T06:15:05.727Z,17.09
2022-08-07T06:16:04.539Z,17.12
2022-08-07T06:17:07.115Z,17.24
2022-08-07T06:18:04.515Z,17.32
2022-08-07T06:19:06.586Z,17.36
2022-08-07T06:20:04.748Z,17.39
2022-08-07T06:22:15.600Z,17.45
2022-08-07T06:22:15.646Z,17.38
2022-08-07T06:23:24.624Z,17.49
2022-08-07T06:24:48.190Z,17.60
2022-08-07T06:25:04.428Z,17.70
2022-08-07T06:26:04.420Z,17.54
2022-08-07T06:27:04.397Z,17.49
2022-08-07T06:28:04.675Z,17.65
2022-08-07T06:29:06.417Z,17.80
2022-08-07T06:30:04.369Z,17.84
2022-08-07T06:31:04.354Z,17.92
2022-08-07T06:32:04.591Z,17.91
2022-08-07T06:33:04.326Z,18.16
2022-08-07T06:34:04.309Z,18.23
2022-08-07T06:35:17.880Z,18.39
2022-08-07T06:36:06.544Z,18.65
2022-08-07T06:37:04.269Z,18.74
2022-08-07T06:38:04.249Z,18.87
2022-08-07T06:40:16.867Z,19.06
2022-08-07T06:40:17.561Z,18.90
2022-08-07T06:41:04.301Z,18.94
2022-08-07T06:42:04.318Z,19.12
2022-08-07T06:43:04.194Z,19.17
2022-08-07T06:44:06.724Z,19.13
2022-08-07T06:45:05.189Z,19.20
2022-08-07T06:46:04.148Z,19.10
2022-08-07T06:47:12.506Z,19.16
2022-08-07T06:48:04.123Z,19.17
2022-08-07T06:49:04.561Z,19.15
2022-08-07T06:50:04.128Z,19.27
2022-08-07T06:51:08.285Z,19.28
2022-08-07T06:52:07.604Z,19.35
2022-08-07T06:53:04.543Z,19.28
2022-08-07T06:55:29.493Z,19.28
2022-08-07T06:55:33.523Z,19.23
2022-08-07T06:56:04.012Z,19.23
2022-08-07T06:57:04.005Z,19.24
2022-08-07T06:58:04.281Z,19.30
2022-08-07T07:00:12.710Z,19.49
2022-08-07T07:00:14.489Z,19.45
2022-08-07T07:01:03.957Z,19.52
2022-08-07T07:02:03.975Z,19.42
2022-08-07T07:03:10.954Z,19.35
2022-08-07T07:04:28.257Z,19.17
2022-08-07T07:05:04.917Z,19.09
2022-08-07T07:06:06.244Z,19.12
2022-08-07T07:07:19.058Z,19.20
2022-08-07T07:08:07.188Z,19.24
2022-08-07T07:09:03.854Z,19.28
2022-08-07T07:10:03.838Z,19.45
2022-08-07T07:11:13.975Z,19.71
2022-08-07T07:12:07.515Z,19.85
2022-08-07T07:13:04.817Z,20.10
2022-08-07T07:14:03.781Z,20.16
2022-08-07T07:15:03.828Z,20.19
2022-08-07T07:16:03.751Z,20.38
2022-08-07T07:17:03.743Z,20.35
2022-08-07T07:18:05.539Z,20.42
2022-08-07T07:19:04.289Z,20.57
2022-08-07T07:20:03.698Z,20.73
2022-08-07T07:21:03.995Z,21.13
2022-08-07T07:22:11.946Z,21.06
2022-08-07T07:24:09.661Z,20.78
2022-08-07T07:24:10.622Z,20.68
2022-08-07T07:26:33.096Z,20.58
2022-08-07T07:26:35.368Z,20.72
2022-08-07T07:27:03.612Z,20.69
2022-08-07T07:28:07.583Z,20.81
2022-08-07T07:29:39.391Z,20.83
2022-08-07T07:30:09.430Z,20.96
2022-08-07T07:31:03.561Z,21.05
2022-08-07T07:32:03.539Z,21.15
2022-08-07T07:33:03.533Z,21.31
2022-08-07T07:34:03.513Z,21.61
2022-08-07T07:35:04.060Z,21.82
2022-08-07T07:36:05.411Z,22.11
2022-08-07T07:37:14.713Z,22.44
2022-08-07T07:38:04.844Z,22.78
2022-08-07T07:39:03.500Z,22.79
2022-08-07T07:40:03.498Z,22.91
2022-08-07T07:41:03.424Z,23.07
2022-08-07T07:42:13.710Z,23.00
2022-08-07T07:43:11.585Z,22.94
2022-08-07T07:44:17.458Z,23.26
2022-08-07T07:45:03.375Z,23.34
2022-08-07T07:46:39.984Z,23.39
2022-08-07T07:47:14.267Z,23.63
2022-08-07T07:48:04.367Z,23.81
2022-08-07T07:50:29.727Z,24.02
2022-08-07T07:50:33.878Z,24.19
2022-08-07T07:51:03.297Z,24.45
2022-08-07T07:52:03.387Z,24.41
2022-08-07T07:53:03.269Z,24.64
2022-08-07T07:54:03.252Z,24.66
2022-08-07T07:55:03.263Z,24.42
2022-08-07T07:56:03.221Z,24.30
2022-08-07T07:57:03.211Z,24.24
2022-08-07T07:58:03.197Z,24.56
2022-08-07T07:59:03.187Z,24.63
2022-08-07T08:00:03.171Z,24.82
2022-08-07T08:01:03.234Z,24.39
2022-08-07T08:02:10.216Z,24.46
2022-08-07T08:03:05.800Z,24.75
2022-08-07T08:04:05.994Z,24.80
2022-08-07T08:05:03.117Z,24.82
2022-08-07T08:06:03.104Z,25.05
2022-08-07T08:07:07.549Z,25.38
2022-08-07T08:08:03.194Z,25.49
2022-08-07T08:09:03.059Z,25.76
2022-08-07T08:10:04.902Z,25.83
2022-08-07T08:11:03.034Z,25.64
2022-08-07T08:12:05.280Z,25.78
2022-08-07T08:13:03.211Z,26.16
2022-08-07T08:14:02.998Z,26.35
2022-08-07T08:15:07.096Z,25.93
2022-08-07T08:16:02.974Z,26.06
2022-08-07T08:17:32.382Z,25.89
2022-08-07T08:18:17.371Z,26.20
2022-08-07T08:19:17.907Z,26.06
2022-08-07T08:20:18.994Z,25.96
2022-08-07T08:21:02.915Z,26.31
2022-08-07T08:22:03.904Z,26.60
2022-08-07T08:23:02.885Z,26.71
2022-08-07T08:24:02.875Z,26.57
2022-08-07T08:25:18.276Z,26.56
2022-08-07T08:27:05.928Z,26.79
2022-08-07T08:27:20.528Z,26.60
2022-08-07T08:28:03.906Z,26.42
2022-08-07T08:29:02.807Z,26.69
2022-08-07T08:30:03.803Z,26.81
2022-08-07T08:31:02.779Z,27.23
2022-08-07T08:32:18.886Z,27.61
2022-08-07T08:33:03.023Z,27.48
2022-08-07T08:34:02.747Z,27.50
2022-08-07T08:35:02.735Z,27.55
2022-08-07T08:36:02.754Z,27.93
2022-08-07T08:37:02.713Z,28.21
2022-08-07T08:38:03.433Z,28.32
2022-08-07T08:39:02.922Z,28.40
2022-08-07T08:40:02.750Z,28.23
2022-08-07T08:41:02.774Z,28.23
2022-08-07T08:42:02.649Z,28.18
2022-08-07T08:43:02.636Z,28.48
2022-08-07T08:44:02.627Z,28.74
2022-08-07T08:45:04.174Z,28.91
2022-08-07T08:46:02.602Z,29.15
2022-08-07T08:47:02.588Z,29.12
2022-08-07T08:48:02.576Z,28.95
2022-08-07T08:49:02.572Z,29.23
2022-08-07T08:50:05.575Z,29.23
2022-08-07T08:51:03.253Z,29.23
2022-08-07T08:52:14.512Z,28.83
2022-08-07T08:53:02.534Z,28.17
2022-08-07T08:54:02.500Z,28.51
2022-08-07T08:55:04.737Z,28.82
2022-08-07T08:56:02.478Z,28.87
2022-08-07T08:57:02.459Z,28.32
2022-08-07T08:58:02.457Z,27.72
2022-08-07T08:59:06.541Z,27.62
2022-08-07T09:00:02.432Z,27.90
2022-08-07T09:01:02.509Z,28.50
2022-08-07T09:02:02.540Z,28.32
2022-08-07T09:03:05.212Z,28.43
2022-08-07T09:04:02.391Z,28.69
2022-08-07T09:05:02.367Z,28.87
2022-08-07T09:06:02.369Z,28.52
2022-08-07T09:07:02.361Z,28.21
2022-08-07T09:08:02.333Z,28.20
2022-08-07T09:09:02.318Z,28.40
2022-08-07T09:10:03.234Z,28.76
2022-08-07T09:11:02.295Z,29.18
2022-08-07T09:12:30.148Z,29.54
2022-08-07T09:13:02.275Z,30.04
2022-08-07T09:14:02.265Z,30.37
2022-08-07T09:16:22.556Z,29.70
2022-08-07T09:16:23.066Z,29.86
2022-08-07T09:17:02.219Z,29.55
2022-08-07T09:18:09.869Z,29.20
2022-08-07T09:19:03.478Z,29.14
2022-08-07T09:20:02.193Z,29.78
2022-08-07T09:21:02.170Z,30.22
2022-08-07T09:22:23.054Z,30.75
2022-08-07T09:24:33.364Z,31.49
2022-08-07T09:24:33.475Z,30.86
2022-08-07T09:25:07.116Z,31.46
2022-08-07T09:26:02.121Z,31.38
2022-08-07T09:27:04.654Z,30.67
2022-08-07T09:28:02.129Z,30.51
2022-08-07T09:30:02.042Z,30.81
2022-08-07T09:30:08.455Z,31.07
2022-08-07T09:31:03.045Z,30.94
2022-08-07T09:32:02.047Z,30.66
2022-08-07T09:33:05.278Z,31.16
2022-08-07T09:34:02.024Z,31.28
2022-08-07T09:35:04.387Z,31.60
2022-08-07T09:36:05.956Z,31.84
2022-08-07T09:37:01.988Z,31.87
2022-08-07T09:38:01.973Z,31.98
2022-08-07T09:39:11.506Z,32.21
2022-08-07T09:40:02.047Z,32.17
2022-08-07T09:41:01.947Z,31.85
2022-08-07T09:42:05.771Z,32.02
2022-08-07T09:43:01.910Z,31.92
2022-08-07T09:44:05.887Z,31.91
2022-08-07T09:46:29.070Z,31.68
2022-08-07T09:47:26.254Z,31.45
2022-08-07T09:47:54.991Z,31.59
2022-08-07T09:48:05.196Z,31.64
2022-08-07T09:50:00.531Z,31.75
2022-08-07T09:50:18.822Z,31.68
2022-08-07T09:51:01.824Z,31.67
2022-08-07T09:52:16.189Z,31.53
2022-08-07T09:53:01.807Z,31.75
2022-08-07T09:54:02.870Z,31.84
2022-08-07T09:55:01.776Z,32.24
2022-08-07T09:56:04.147Z,32.19
2022-08-07T09:57:01.749Z,32.13
2022-08-07T09:58:01.751Z,32.10
2022-08-07T09:59:01.728Z,32.22
2022-08-07T10:00:01.970Z,32.12
2022-08-07T10:01:01.704Z,31.85
2022-08-07T10:02:01.697Z,31.71
2022-08-07T10:03:08.246Z,31.50
2022-08-07T10:04:13.920Z,31.68
2022-08-07T10:05:12.394Z,32.02
2022-08-07T10:06:05.393Z,32.63
2022-08-07T10:07:01.650Z,32.76
2022-08-07T10:08:02.313Z,32.80
2022-08-07T10:09:01.622Z,32.78
2022-08-07T10:10:02.965Z,32.68
2022-08-07T10:11:59.801Z,32.39
2022-08-07T10:12:10.522Z,31.79
2022-08-07T10:13:01.572Z,31.23
2022-08-07T10:14:02.435Z,30.93
2022-08-07T10:15:01.549Z,30.97
2022-08-07T10:16:01.551Z,31.23
2022-08-07T10:17:01.567Z,31.45
2022-08-07T10:18:03.224Z,31.75
2022-08-07T10:19:01.500Z,32.32
2022-08-07T10:20:01.491Z,32.54
2022-08-07T10:21:01.503Z,32.13
2022-08-07T10:22:15.647Z,31.71
2022-08-07T10:23:01.453Z,31.67
2022-08-07T10:24:05.252Z,32.03
2022-08-07T10:25:01.428Z,32.10
2022-08-07T10:26:01.425Z,32.02
2022-08-07T10:27:01.403Z,32.10
2022-08-07T10:28:02.475Z,32.25
2022-08-07T10:29:01.381Z,32.14
2022-08-07T10:30:01.925Z,31.90
2022-08-07T10:31:01.362Z,32.10
2022-08-07T10:32:01.356Z,32.24
2022-08-07T10:33:01.363Z,32.39
2022-08-07T10:34:04.966Z,32.58
2022-08-07T10:35:01.314Z,31.82
2022-08-07T10:36:05.552Z,31.49
2022-08-07T10:37:03.963Z,30.82
2022-08-07T10:38:21.164Z,30.67
2022-08-07T10:39:01.316Z,30.81
2022-08-07T10:40:05.697Z,31.57
2022-08-07T10:41:01.255Z,32.09
2022-08-07T10:42:09.855Z,32.36
2022-08-07T10:43:01.222Z,32.40
2022-08-07T10:44:07.410Z,32.43
2022-08-07T10:45:02.250Z,32.65
2022-08-07T10:46:01.195Z,33.03
2022-08-07T10:47:01.178Z,33.21
2022-08-07T10:48:03.523Z,33.55
2022-08-07T10:49:01.156Z,33.63
2022-08-07T10:50:01.150Z,33.28
2022-08-07T10:51:01.234Z,33.52
2022-08-07T10:52:13.186Z,32.95
2022-08-07T10:53:04.116Z,32.07
2022-08-07T10:54:01.112Z,32.09
2022-08-07T10:55:02.035Z,32.24
2022-08-07T10:56:02.466Z,32.14
2022-08-07T10:57:01.070Z,31.97
2022-08-07T10:58:01.064Z,31.92
2022-08-07T10:59:01.045Z,32.29
2022-08-07T11:00:01.041Z,32.44
2022-08-07T11:01:01.077Z,32.12
2022-08-07T11:02:05.096Z,32.35
2022-08-07T11:03:02.118Z,32.51
2022-08-07T11:04:16.485Z,32.80
2022-08-07T11:05:08.523Z,33.15
2022-08-07T11:06:00.974Z,33.74
2022-08-07T11:07:00.962Z,33.94
2022-08-07T11:08:03.513Z,33.86
2022-08-07T11:09:00.943Z,33.60
2022-08-07T11:10:06.962Z,33.79
2022-08-07T11:11:01.951Z,33.92
2022-08-07T11:12:00.917Z,33.92
2022-08-07T11:13:02.227Z,33.99
2022-08-07T11:14:45.087Z,34.19
2022-08-07T11:15:01.217Z,34.16
2022-08-07T11:16:00.933Z,33.99
2022-08-07T11:17:07.120Z,33.66
2022-08-07T11:18:03.688Z,33.68
2022-08-07T11:19:00.835Z,34.00
2022-08-07T11:20:03.366Z,33.86
2022-08-07T11:21:00.815Z,33.70
2022-08-07T11:22:00.807Z,33.35
2022-08-07T11:23:01.385Z,32.62
2022-08-07T11:24:00.779Z,32.40
2022-08-07T11:25:06.517Z,32.53
2022-08-07T11:26:06.282Z,32.05
2022-08-07T11:27:01.321Z,32.05
2022-08-07T11:28:03.933Z,31.95
2022-08-07T11:29:00.725Z,31.60
2022-08-07T11:30:17.947Z,31.30
2022-08-07T11:31:01.749Z,31.20
2022-08-07T11:32:00.696Z,31.15
2022-08-07T11:33:00.682Z,30.97
2022-08-07T11:34:00.895Z,31.32
2022-08-07T11:35:00.658Z,31.60
2022-08-07T11:36:01.450Z,31.65
2022-08-07T11:37:00.687Z,31.94
2022-08-07T11:38:12.550Z,32.40
2022-08-07T11:39:01.700Z,32.61
2022-08-07T11:40:03.793Z,32.98
2022-08-07T11:41:00.588Z,33.00
2022-08-07T11:42:02.905Z,33.40
2022-08-07T11:43:00.569Z,33.77
2022-08-07T11:44:12.422Z,33.96
2022-08-07T11:45:00.545Z,34.01
2022-08-07T11:46:00.542Z,34.14
2022-08-07T11:47:00.535Z,34.49
2022-08-07T11:48:02.608Z,34.26
2022-08-07T11:49:28.686Z,34.61
2022-08-07T11:50:31.306Z,34.88
2022-08-07T11:51:01.512Z,34.49
2022-08-07T11:52:00.478Z,33.72
2022-08-07T11:53:00.461Z,32.84
2022-08-07T11:54:02.282Z,32.53
2022-08-07T11:55:01.191Z,31.74
2022-08-07T11:56:11.957Z,31.94
2022-08-07T11:57:00.419Z,32.43
2022-08-07T11:58:01.625Z,32.81
2022-08-07T11:59:00.398Z,33.21
2022-08-07T12:00:11.298Z,33.56
2022-08-07T12:01:05.272Z,33.28
2022-08-07T12:02:00.959Z,32.46
2022-08-07T12:03:00.388Z,32.49
2022-08-07T12:04:00.362Z,32.41
2022-08-07T12:05:00.327Z,32.43
2022-08-07T12:06:00.319Z,32.61
2022-08-07T12:07:08.093Z,33.00
2022-08-07T12:08:04.199Z,33.15
2022-08-07T12:09:00.279Z,33.38
2022-08-07T12:10:02.188Z,32.73
2022-08-07T12:11:08.393Z,32.83
2022-08-07T12:12:09.110Z,32.93
2022-08-07T12:13:00.236Z,32.96
2022-08-07T12:14:00.232Z,33.18
2022-08-07T12:15:01.611Z,33.11
2022-08-07T12:16:06.663Z,33.11
2022-08-07T12:17:00.397Z,32.95
2022-08-07T12:18:01.064Z,32.31
2022-08-07T12:19:01.199Z,32.27
2022-08-07T12:20:04.932Z,32.29
2022-08-07T12:21:00.153Z,31.90
2022-08-07T12:22:37.280Z,32.07
2022-08-07T12:23:00.132Z,32.13
2022-08-07T12:24:06.705Z,32.41
2022-08-07T12:25:02.276Z,32.71
2022-08-07T12:26:06.082Z,32.96
2022-08-07T12:27:00.085Z,32.59
2022-08-07T12:28:08.837Z,32.61
2022-08-07T12:29:01.087Z,32.88
2022-08-07T12:30:00.065Z,32.53
2022-08-07T12:31:00.050Z,32.22
2022-08-07T12:32:03.771Z,32.10
2022-08-07T12:33:00.023Z,31.92
2022-08-07T12:34:01.941Z,31.87
2022-08-07T12:34:59.995Z,31.62
2022-08-07T12:36:02.265Z,31.57
2022-08-07T12:36:59.979Z,31.13
2022-08-07T12:38:09.623Z,31.35
2022-08-07T12:39:00.077Z,31.22
2022-08-07T12:39:59.982Z,31.23
2022-08-07T12:40:59.958Z,31.34
2022-08-07T12:41:59.919Z,30.93
2022-08-07T12:42:59.910Z,31.04
2022-08-07T12:44:04.552Z,30.97
2022-08-07T12:44:59.890Z,31.22
2022-08-07T12:45:59.870Z,31.37
2022-08-07T12:46:59.862Z,31.28
2022-08-07T12:47:59.847Z,31.04
2022-08-07T12:48:59.837Z,30.91
2022-08-07T12:50:04.913Z,30.78
2022-08-07T12:50:59.821Z,30.94
2022-08-07T12:52:13.975Z,30.94
2022-08-07T12:52:59.794Z,30.91
2022-08-07T12:54:02.961Z,30.94
2022-08-07T12:55:03.950Z,30.98
2022-08-07T12:56:02.890Z,30.51
2022-08-07T12:57:00.493Z,30.34
2022-08-07T12:58:02.175Z,30.32